Time;durP1;ratioP1;P1;durP2;ratioP2;P2;SDS_P1;SDS_P2;PMS_P1;PMS_P2;Temp;Humidity;BMP_temperature;BMP_pressure;BME280_temperature;BME280_humidity;BME280_pressure;Samples;Min_cycle;Max_cycle;Signal;HPM_P1;HPM_P2
2022/01/28 00:00:36;;;;;;;7.62;6.47;;;;;;;1.72;85.50;96180.13;1658700;86;21047;-81
2022/01/28 00:03:07;;;;;;;6.30;5.70;;;;;;;1.71;85.46;96156.73;1661413;86;21047;-81
2022/01/28 00:05:34;;;;;;;5.30;4.58;;;;;;;1.70;85.45;96139.27;1661380;86;21147;-81
2022/01/28 00:08:00;;;;;;;7.80;6.92;;;;;;;1.70;85.54;96157.20;1661417;86;21466;-81
2022/01/28 00:10:27;;;;;;;8.60;6.47;;;;;;;1.72;85.32;96137.86;1660571;86;21143;-81
2022/01/28 00:18:41;;;;;;;6.97;5.33;;;;;;;1.76;85.05;96118.71;1657130;86;21029;-81
2022/01/28 00:39:09;;;;;;;5.42;4.75;;;;;;;1.83;84.31;96126.69;1657122;87;21462;-80
2022/01/28 00:41:34;;;;;;;5.97;4.50;;;;;;;1.83;84.01;96118.53;1657138;86;21048;-81
2022/01/28 00:44:01;;;;;;;6.70;4.92;;;;;;;1.77;83.80;96117.30;1657072;86;21091;-80
2022/01/28 00:46:26;;;;;;;5.67;4.35;;;;;;;1.83;84.06;96117.72;1657002;87;21036;-80
2022/01/28 00:48:52;;;;;;;4.58;4.05;;;;;;;1.82;83.87;96130.19;1636294;87;21060;-81
2022/01/28 00:51:18;;;;;;;4.30;3.77;;;;;;;1.83;83.96;96138.22;1657182;86;21091;-81
2022/01/28 00:53:44;;;;;;;3.50;2.87;;;;;;;1.83;83.74;96134.38;1657076;86;21423;-81
2022/01/28 00:56:09;;;;;;;4.30;3.90;;;;;;;1.86;83.29;96122.57;1667484;83;21028;-80
2022/01/28 00:58:35;;;;;;;5.55;4.08;;;;;;;1.89;83.36;96145.36;1662322;84;21071;-82
2022/01/28 01:01:01;;;;;;;4.12;3.40;;;;;;;1.89;83.17;96117.98;1655749;86;21024;-81
2022/01/28 01:03:27;;;;;;;3.62;3.27;;;;;;;1.89;83.05;96129.52;1657115;86;20967;-81
2022/01/28 01:05:52;;;;;;;3.50;3.20;;;;;;;1.88;83.07;96120.68;1656972;87;21044;-81
2022/01/28 01:08:18;;;;;;;4.03;3.62;;;;;;;1.88;82.91;96127.09;1657103;86;21371;-80
2022/01/28 01:10:44;;;;;;;4.25;3.40;;;;;;;1.87;82.81;96117.31;1671807;85;21072;-81
2022/01/28 01:13:09;;;;;;;3.83;3.37;;;;;;;1.90;82.99;96120.87;1669035;86;20983;-81
2022/01/28 01:15:40;;;;;;;4.03;3.00;;;;;;;1.91;83.00;96117.84;1668932;85;21011;-81
2022/01/28 01:25:29;;;;;;;5.35;4.37;;;;;;;1.87;82.72;96122.91;1668859;85;21111;-80
2022/01/28 01:27:57;;;;;;;4.30;3.90;;;;;;;1.89;82.82;96128.23;1669035;85;22065;-81
2022/01/28 01:30:25;;;;;;;3.92;3.45;;;;;;;1.90;82.49;96129.84;1670041;85;21000;-81
2022/01/28 01:32:51;;;;;;;3.65;3.27;;;;;;;1.92;82.31;96123.30;1648458;86;21036;-80
2022/01/28 01:35:17;;;;;;;4.87;4.05;;;;;;;1.91;82.28;96143.47;1669141;85;20991;-80
2022/01/28 01:37:43;;;;;;;3.55;3.22;;;;;;;1.89;82.46;96138.48;1669426;85;21027;-81
2022/01/28 01:40:11;;;;;;;5.12;3.80;;;;;;;1.87;82.75;96139.56;1669217;85;21442;-81
2022/01/28 01:53:16;;;;;;;4.90;3.65;;;;;;;1.88;82.44;96124.05;1669313;85;21398;-81
2022/01/28 01:55:41;;;;;;;3.95;3.58;;;;;;;1.86;82.36;96127.70;1674713;83;20991;-80
2022/01/28 01:58:07;;;;;;;5.53;3.75;;;;;;;1.84;82.50;96121.90;1687997;84;20956;-80
2022/01/28 02:00:33;;;;;;;5.05;3.35;;;;;;;1.83;82.69;96125.41;1668827;86;21030;-80
2022/01/28 02:02:58;;;;;;;3.62;3.10;;;;;;;1.82;82.67;96120.75;1669305;85;21068;-81
2022/01/28 02:05:24;;;;;;;3.58;3.22;;;;;;;1.83;82.31;96122.37;1669014;86;21014;-80
2022/01/28 02:07:50;;;;;;;4.33;3.50;;;;;;;1.82;82.36;96123.31;1669038;86;21003;-81
2022/01/28 02:10:16;;;;;;;4.10;3.05;;;;;;;1.79;82.41;96119.28;1680073;85;21413;-80
2022/01/28 02:12:51;;;;;;;4.05;3.65;;;;;;;1.75;82.60;96102.53;1688575;85;20934;-80
2022/01/28 02:15:17;;;;;;;3.60;3.30;;;;;;;1.74;82.67;96115.48;1688543;85;20961;-80
2022/01/28 02:17:44;;;;;;;2.95;2.70;;;;;;;1.72;82.78;96107.92;1688700;85;20958;-80
2022/01/28 02:20:29;;;;;;;3.05;2.77;;;;;;;1.72;82.91;96125.05;1688596;85;21392;-81
2022/01/28 02:22:52;;;;;;;3.98;3.45;;;;;;;1.69;83.16;96100.52;1687365;85;21817;-80
2022/01/28 02:25:24;;;;;;;3.62;3.25;;;;;;;1.67;83.32;96110.56;1688632;85;21041;-80
2022/01/28 02:27:51;;;;;;;3.62;3.12;;;;;;;1.63;83.44;96103.63;1663195;85;21048;-81
2022/01/28 02:30:17;;;;;;;3.10;2.80;;;;;;;1.60;83.59;96099.22;1688623;85;20994;-80
2022/01/28 02:32:44;;;;;;;3.92;3.30;;;;;;;1.57;83.57;96104.61;1670890;85;21408;-81
2022/01/28 02:35:10;;;;;;;3.22;2.75;;;;;;;1.57;83.55;96107.98;1688608;85;20997;-80
2022/01/28 02:37:37;;;;;;;3.90;3.15;;;;;;;1.56;83.69;96099.95;1688352;85;20957;-81
2022/01/28 02:40:05;;;;;;;3.50;3.17;;;;;;;1.56;83.70;96089.72;1688515;85;21329;-81
2022/01/28 02:42:47;;;;;;;4.20;3.25;;;;;;;1.55;83.70;96084.26;1688444;85;21025;-80
2022/01/28 02:45:01;;;;;;;3.67;3.27;;;;;;;1.54;83.57;96098.00;1684812;85;20938;-81
2022/01/28 02:47:35;;;;;;;3.22;2.72;;;;;;;1.52;83.63;96099.89;1688463;85;21388;-81
2022/01/28 02:49:58;;;;;;;3.10;2.80;;;;;;;1.47;83.69;96097.73;1693390;85;21073;-81
2022/01/28 02:52:35;;;;;;;2.98;2.47;;;;;;;1.46;83.56;96118.33;1688445;85;21104;-81
2022/01/28 02:54:51;;;;;;;4.35;3.50;;;;;;;1.47;83.42;96116.94;1686907;85;21070;-81
2022/01/28 02:57:24;;;;;;;3.72;2.92;;;;;;;1.50;83.62;96117.95;1696983;82;21312;-81
2022/01/28 02:59:45;;;;;;;3.00;2.75;;;;;;;1.53;83.61;96116.88;1687634;85;21085;-80
2022/01/28 03:02:10;;;;;;;3.12;2.85;;;;;;;1.54;83.60;96128.73;1688520;85;20961;-81
2022/01/28 03:07:04;;;;;;;3.25;2.95;;;;;;;1.54;83.69;96119.77;1688803;85;21344;-81
2022/01/28 03:09:47;;;;;;;3.35;2.50;;;;;;;1.54;83.69;96123.61;1681801;85;21414;-80
2022/01/28 03:12:11;;;;;;;3.17;2.70;;;;;;;1.56;83.40;96131.16;1656940;86;20995;-81
2022/01/28 03:14:47;;;;;;;3.42;3.12;;;;;;;1.56;83.41;96137.56;1657759;86;21079;-81
2022/01/28 03:17:26;;;;;;;3.15;2.60;;;;;;;1.57;83.39;96137.42;1653011;86;21379;-81
2022/01/28 03:19:49;;;;;;;3.52;3.22;;;;;;;1.58;83.26;96137.77;1657734;86;21422;-80
2022/01/28 03:22:08;;;;;;;3.00;2.77;;;;;;;1.60;83.15;96142.75;1659347;86;21430;-81
2022/01/28 03:24:34;;;;;;;3.77;3.47;;;;;;;1.57;83.39;96141.27;1642396;86;20992;-81
2022/01/28 03:27:06;;;;;;;4.10;3.30;;;;;;;1.56;83.46;96137.09;1661425;86;20996;-80
2022/01/28 03:29:28;;;;;;;4.03;2.87;;;;;;;1.54;83.37;96129.20;1660542;86;21013;-81
2022/01/28 03:31:54;;;;;;;5.17;3.12;;;;;;;1.52;83.41;96137.02;1661238;86;20996;-81
2022/01/28 03:34:19;;;;;;;4.47;3.00;;;;;;;1.53;83.46;96148.08;1661309;86;21419;-80
2022/01/28 03:36:45;;;;;;;3.17;2.87;;;;;;;1.53;83.44;96148.88;1661209;86;20999;-81
2022/01/28 03:39:11;;;;;;;3.83;3.42;;;;;;;1.53;83.42;96146.32;1661221;86;21027;-82
2022/01/28 03:41:38;;;;;;;4.17;3.77;;;;;;;1.53;83.38;96139.11;1661243;86;21045;-80
2022/01/28 03:44:05;;;;;;;4.47;4.05;;;;;;;1.50;83.34;96126.91;1661396;86;21007;-80
2022/01/28 03:46:30;;;;;;;3.33;3.02;;;;;;;1.50;83.16;96131.23;1661233;86;21082;-81
2022/01/28 03:48:57;;;;;;;3.85;3.12;;;;;;;1.50;83.04;96140.19;1661400;86;21079;-81
2022/01/28 03:51:23;;;;;;;4.12;3.08;;;;;;;1.50;83.12;96147.39;1661176;86;21125;-80
2022/01/28 03:53:48;;;;;;;3.87;3.25;;;;;;;1.52;83.19;96145.98;1661454;86;21000;-81
2022/01/28 03:56:14;;;;;;;3.75;3.17;;;;;;;1.53;83.43;96147.60;1671937;83;20957;-81
2022/01/28 03:58:40;;;;;;;5.87;4.00;;;;;;;1.53;83.33;96142.48;1678580;84;21383;-80
2022/01/28 04:01:13;;;;;;;5.83;3.05;;;;;;;1.51;83.37;96150.77;1661472;86;20937;-81
2022/01/28 04:11:33;;;;;;;3.45;3.15;;;;;;;1.48;82.35;96140.80;1668026;85;21502;-80
2022/01/28 04:14:10;;;;;;;3.45;3.15;;;;;;;1.49;82.06;96136.81;1669083;86;21275;-80
2022/01/28 04:17:18;;;;;;;4.35;3.05;;;;;;;1.50;82.26;96133.78;1667714;86;21024;-81
2022/01/28 04:18:57;;;;;;;4.78;3.17;;;;;;;1.50;82.07;96131.23;1665275;86;21032;-81
2022/01/28 04:21:23;;;;;;;4.28;3.12;;;;;;;1.51;82.00;96130.28;1669224;86;21149;-80
2022/01/28 04:23:49;;;;;;;3.80;2.80;;;;;;;1.51;82.24;96135.41;1668982;86;21477;-81
2022/01/28 04:26:14;;;;;;;4.97;3.60;;;;;;;1.53;81.28;96126.30;1668910;85;21031;-80
2022/01/28 04:28:40;;;;;;;4.15;2.45;;;;;;;1.55;81.70;96117.55;1668801;86;21020;-81
2022/01/28 04:31:06;;;;;;;3.25;2.95;;;;;;;1.57;80.77;96117.41;1669091;85;20988;-81
2022/01/28 04:33:32;;;;;;;3.25;2.45;;;;;;;1.56;81.17;96128.13;1668983;86;20988;-80
2022/01/28 04:35:58;;;;;;;2.72;2.47;;;;;;;1.57;80.36;96122.53;1669112;86;21381;-80
2022/01/28 04:43:26;;;;;;;6.62;3.77;;;;;;;1.62;80.37;96140.86;1669218;85;21008;-81
2022/01/28 04:45:55;;;;;;;3.25;2.95;;;;;;;1.61;80.64;96137.49;1668348;83;21367;-81
2022/01/28 04:56:08;;;;;;;2.52;2.30;;;;;;;1.51;81.14;96112.36;1674857;83;21036;-80
2022/01/28 05:03:54;;;;;;;3.40;2.60;;;;;;;1.49;81.39;96128.33;1679969;84;21012;-81
2022/01/28 05:14:09;;;;;;;3.45;2.20;;;;;;;1.52;81.19;96132.38;1697096;83;20988;-80
2022/01/28 05:16:35;;;;;;;3.15;2.02;;;;;;;1.51;80.86;96146.92;1692883;84;21011;-81
2022/01/28 05:29:20;;;;;;;4.20;3.15;;;;;;;1.41;82.93;96162.25;1697051;83;21394;-80
2022/01/28 05:31:47;;;;;;;3.60;3.25;;;;;;;1.35;83.84;96176.05;1697257;84;20991;-81
2022/01/28 05:34:14;;;;;;;4.30;3.12;;;;;;;1.26;84.62;96180.19;1697011;84;20987;-80
2022/01/28 05:36:41;;;;;;;5.47;3.70;;;;;;;1.20;84.49;96187.11;1696959;84;21399;-81
2022/01/28 05:39:07;;;;;;;5.33;3.52;;;;;;;1.14;85.29;96182.52;1697081;83;20936;-80
2022/01/28 05:41:33;;;;;;;4.08;3.35;;;;;;;1.07;86.02;96186.04;1696692;83;20991;-80
2022/01/28 05:44:00;;;;;;;5.22;3.17;;;;;;;1.00;86.47;96189.25;1696846;84;20941;-80
2022/01/28 05:46:28;;;;;;;6.62;3.60;;;;;;;0.95;87.22;96193.45;1696993;84;20999;-81
2022/01/28 05:48:54;;;;;;;5.58;4.47;;;;;;;0.89;87.14;96194.77;1696991;84;21016;-80
2022/01/28 05:51:20;;;;;;;5.20;4.20;;;;;;;0.86;87.21;96189.91;1697102;83;20984;-80
2022/01/28 05:53:46;;;;;;;6.45;4.60;;;;;;;0.85;88.05;96189.58;1696961;83;21004;-80
2022/01/28 05:56:11;;;;;;;4.72;3.85;;;;;;;0.82;87.82;96191.58;1696751;83;20967;-80
2022/01/28 05:58:37;;;;;;;7.85;4.70;;;;;;;0.81;88.25;96188.66;1697148;83;21343;-80
2022/01/28 06:01:03;;;;;;;6.28;4.50;;;;;;;0.79;88.20;96197.73;1689664;84;20984;-80
2022/01/28 06:03:28;;;;;;;5.45;4.62;;;;;;;0.78;88.45;96195.30;1685323;84;20975;-80
2022/01/28 06:05:54;;;;;;;5.17;4.20;;;;;;;0.79;88.33;96207.97;1669119;85;21484;-80
2022/01/28 06:08:20;;;;;;;8.70;5.40;;;;;;;0.79;89.15;96199.02;1668947;85;20980;-80
2022/01/28 06:10:46;;;;;;;6.30;4.50;;;;;;;0.78;88.74;96214.02;1665480;84;21052;-81
2022/01/28 06:13:11;;;;;;;5.15;4.20;;;;;;;0.78;88.89;96217.86;1661101;86;21418;-80
2022/01/28 06:15:42;;;;;;;6.28;5.17;;;;;;;0.77;89.26;96221.81;1661397;86;20944;-80
2022/01/28 06:18:11;;;;;;;5.12;4.08;;;;;;;0.76;89.50;96220.20;1660923;86;21075;-80
2022/01/28 06:20:37;;;;;;;20.95;12.60;;;;;;;0.74;89.63;96219.52;1661396;86;21348;-80
2022/01/28 06:23:03;;;;;;;17.35;12.00;;;;;;;0.73;89.47;96237.08;1661066;86;21059;-80
2022/01/28 06:25:28;;;;;;;5.62;4.75;;;;;;;0.72;90.23;96230.34;1661388;86;21032;-80
2022/01/28 06:27:54;;;;;;;6.45;5.47;;;;;;;0.70;90.18;96235.59;1661381;86;21467;-80
2022/01/28 06:30:21;;;;;;;7.17;5.05;;;;;;;0.72;90.38;96234.18;1661566;86;21000;-80
2022/01/28 06:32:47;;;;;;;5.70;4.05;;;;;;;0.73;90.37;96248.12;1661211;86;21332;-85
2022/01/28 06:35:13;;;;;;;4.70;4.28;;;;;;;0.73;90.62;96251.14;1661361;86;20992;-80
2022/01/28 06:37:42;;;;;;;7.83;5.00;;;;;;;0.70;90.39;96250.93;1661418;86;20980;-80
2022/01/28 06:40:10;;;;;;;9.15;5.35;;;;;;;0.69;90.08;96247.22;1661122;86;20992;-80
2022/01/28 06:42:37;;;;;;;7.22;4.33;;;;;;;0.68;90.54;96245.60;1661140;86;20996;-80
2022/01/28 06:45:04;;;;;;;8.50;5.75;;;;;;;0.67;90.44;96247.34;1661441;86;21059;-81
2022/01/28 06:47:31;;;;;;;27.50;12.07;;;;;;;0.67;90.58;96256.30;1661493;86;21028;-80
2022/01/28 06:49:56;;;;;;;14.53;7.80;;;;;;;0.67;90.55;96251.18;1661176;86;20976;-80
2022/01/28 06:52:22;;;;;;;21.30;8.38;;;;;;;0.69;90.14;96256.17;1642446;86;21055;-80
2022/01/28 06:54:48;;;;;;;21.82;8.60;;;;;;;0.73;90.29;96261.38;1661319;86;20984;-80
2022/01/28 06:57:14;;;;;;;10.43;4.65;;;;;;;0.76;89.96;96264.95;1661438;86;20984;-80
2022/01/28 06:59:39;;;;;;;48.50;21.52;;;;;;;0.79;90.04;96271.91;1661320;86;21426;-80
2022/01/28 07:02:05;;;;;;;17.27;7.78;;;;;;;0.83;90.09;96271.22;1679882;83;21012;-80
2022/01/28 07:04:31;;;;;;;23.75;10.98;;;;;;;0.84;90.19;96276.20;1657110;85;21007;-80
2022/01/28 07:06:56;;;;;;;74.90;27.82;;;;;;;0.86;89.95;96282.47;1689156;85;21020;-80
2022/01/28 07:09:22;;;;;;;15.23;7.40;;;;;;;0.89;89.78;96286.05;1689005;85;21371;-80
2022/01/28 07:11:48;;;;;;;12.47;7.80;;;;;;;0.90;89.69;96286.39;1695082;84;21012;-80
2022/01/28 07:14:14;;;;;;;52.93;21.45;;;;;;;0.90;89.61;96286.39;1696838;85;20987;-81
2022/01/28 07:16:39;;;;;;;48.38;18.50;;;;;;;0.91;89.62;96285.45;1696982;83;21430;-81
2022/01/28 07:19:06;;;;;;;45.48;18.10;;;;;;;0.92;89.37;96287.08;1675446;85;20988;-80
2022/01/28 07:21:32;;;;;;;42.38;16.60;;;;;;;0.95;89.50;96293.69;1696740;84;21403;-80
2022/01/28 07:23:58;;;;;;;13.80;7.67;;;;;;;0.95;89.35;96293.69;1696852;84;21110;-80
2022/01/28 07:26:24;;;;;;;17.67;8.70;;;;;;;0.98;89.04;96296.02;1675296;84;21023;-80
2022/01/28 07:28:50;;;;;;;10.48;5.95;;;;;;;1.00;89.02;96297.98;1697204;83;21019;-80
2022/01/28 07:31:18;;;;;;;11.95;6.58;;;;;;;1.01;89.02;96283.79;1694903;84;20999;-80
2022/01/28 07:33:43;;;;;;;12.63;6.47;;;;;;;1.01;88.60;96302.98;1694939;84;21365;-80
2022/01/28 07:36:09;;;;;;;8.30;5.03;;;;;;;1.02;88.72;96305.88;1697083;84;20944;-80
2022/01/28 07:38:34;;;;;;;9.43;5.08;;;;;;;1.02;88.51;96314.02;1697065;83;20996;-80
2022/01/28 07:41:01;;;;;;;8.80;4.67;;;;;;;1.02;88.48;96312.27;1697299;83;21016;-80
2022/01/28 07:43:28;;;;;;;7.05;5.25;;;;;;;1.03;88.35;96316.92;1696614;84;21144;-80
2022/01/28 07:45:54;;;;;;;11.95;4.92;;;;;;;1.04;88.16;96315.52;1697106;83;21043;-80
2022/01/28 07:48:20;;;;;;;9.18;5.40;;;;;;;1.05;88.00;96318.88;1694951;84;21071;-80
2022/01/28 07:50:45;;;;;;;12.23;5.55;;;;;;;1.07;87.95;96311.42;1663134;85;21067;-80
2022/01/28 07:53:16;;;;;;;11.38;5.42;;;;;;;1.09;87.94;96321.06;1694723;84;21090;-80
2022/01/28 07:55:39;;;;;;;10.53;6.25;;;;;;;1.12;87.71;96328.48;1696257;84;21403;-81
2022/01/28 07:58:05;;;;;;;10.50;5.75;;;;;;;1.13;87.83;96328.83;1697141;83;20999;-80
2022/01/28 08:00:30;;;;;;;9.38;5.80;;;;;;;1.15;87.89;96335.13;1696910;83;20987;-80
2022/01/28 08:02:56;;;;;;;8.25;4.83;;;;;;;1.16;88.04;96331.62;1696506;84;21027;-80
2022/01/28 08:05:22;;;;;;;9.58;5.90;;;;;;;1.19;87.83;96327.06;1669105;83;21047;-80
2022/01/28 08:07:48;;;;;;;7.60;4.97;;;;;;;1.23;87.79;96330.65;1669299;85;21382;-80
2022/01/28 08:10:17;;;;;;;8.33;3.95;;;;;;;1.28;87.43;96337.47;1669608;84;21032;-81
2022/01/28 08:12:46;;;;;;;9.70;6.08;;;;;;;1.31;87.41;96329.56;1681193;85;20970;-80
2022/01/28 08:15:12;;;;;;;9.98;6.72;;;;;;;1.35;87.12;96333.02;1681098;85;20982;-80
2022/01/28 08:17:37;;;;;;;8.38;5.37;;;;;;;1.40;87.17;96338.56;1681261;85;21001;-80
2022/01/28 08:20:04;;;;;;;9.10;5.20;;;;;;;1.42;86.87;96339.72;1662019;85;21097;-80
2022/01/28 08:22:30;;;;;;;7.83;4.83;;;;;;;1.40;86.92;96346.72;1681276;85;21005;-80
2022/01/28 08:24:56;;;;;;;12.03;6.75;;;;;;;1.38;87.09;96346.84;1681386;85;21345;-80
2022/01/28 08:27:22;;;;;;;13.35;6.75;;;;;;;1.38;87.15;96351.16;1681483;85;21396;-80
2022/01/28 08:29:47;;;;;;;6.55;4.78;;;;;;;1.36;86.90;96346.63;1681433;85;21041;-80
2022/01/28 08:32:13;;;;;;;13.32;5.75;;;;;;;1.30;86.85;96345.39;1681447;85;20954;-80
2022/01/28 08:34:39;;;;;;;12.75;6.60;;;;;;;1.31;86.73;96348.77;1681520;85;21302;-80
2022/01/28 08:37:04;;;;;;;16.42;7.35;;;;;;;1.30;86.88;96352.23;1681465;85;20974;-81
2022/01/28 08:39:35;;;;;;;15.95;6.67;;;;;;;1.34;86.73;96357.47;1681256;85;21033;-81
2022/01/28 08:42:01;;;;;;;9.30;4.40;;;;;;;1.37;86.50;96352.09;1681000;85;20994;-81
2022/01/28 08:44:28;;;;;;;10.05;4.85;;;;;;;1.41;86.50;96360.67;1681169;85;20958;-80
2022/01/28 08:46:53;;;;;;;6.30;4.47;;;;;;;1.49;86.56;96360.88;1681365;85;21364;-81
2022/01/28 08:49:19;;;;;;;8.30;4.80;;;;;;;1.53;86.25;96360.14;1681102;85;20978;-80
2022/01/28 08:51:45;;;;;;;7.78;4.40;;;;;;;1.56;86.38;96369.31;1681376;85;20997;-80
2022/01/28 08:54:11;;;;;;;10.78;4.87;;;;;;;1.60;86.39;96371.96;1681301;85;21101;-81
2022/01/28 08:56:37;;;;;;;8.60;3.87;;;;;;;1.60;86.19;96375.33;1681376;85;20942;-80
2022/01/28 08:59:03;;;;;;;7.37;4.42;;;;;;;1.62;86.22;96379.05;1681191;85;20946;-80
2022/01/28 09:01:30;;;;;;;9.95;5.58;;;;;;;1.62;86.17;96383.70;1689112;82;21001;-80
2022/01/28 09:03:56;;;;;;;9.25;4.83;;;;;;;1.61;86.20;96389.76;1696868;84;21021;-80
2022/01/28 09:06:21;;;;;;;6.62;3.98;;;;;;;1.63;86.35;96378.95;1681192;85;20989;-80
2022/01/28 09:08:49;;;;;;;8.30;5.10;;;;;;;1.64;86.39;96387.44;1681226;85;20973;-80
2022/01/28 09:13:46;;;;;;;8.55;5.05;;;;;;;1.72;86.23;96396.57;1678608;85;21042;-80
2022/01/28 09:16:12;;;;;;;8.25;4.58;;;;;;;1.77;86.14;96395.23;1678662;84;20983;-80
2022/01/28 09:18:38;;;;;;;11.78;4.62;;;;;;;1.81;85.75;96391.98;1678463;84;21410;-80
2022/01/28 09:21:04;;;;;;;6.60;4.25;;;;;;;1.83;85.40;96398.25;1675534;85;21060;-81
2022/01/28 09:23:29;;;;;;;9.98;4.65;;;;;;;1.80;85.30;96400.61;1668895;85;21106;-80
2022/01/28 09:25:55;;;;;;;11.97;6.20;;;;;;;1.79;85.29;96401.55;1669084;85;21062;-80
2022/01/28 09:28:21;;;;;;;9.18;4.60;;;;;;;1.76;85.18;96414.58;1669041;85;21115;-80
2022/01/28 09:30:46;;;;;;;9.88;5.10;;;;;;;1.74;85.01;96416.46;1669060;85;21082;-81
2022/01/28 09:33:12;;;;;;;10.58;5.87;;;;;;;1.72;84.88;96420.44;1669062;85;21457;-80
2022/01/28 09:35:38;;;;;;;13.38;5.78;;;;;;;1.72;85.16;96420.44;1669060;85;21024;-80
2022/01/28 09:38:04;;;;;;;11.10;6.65;;;;;;;1.72;85.04;96426.84;1669153;85;21055;-80
2022/01/28 09:40:30;;;;;;;9.38;5.10;;;;;;;1.71;85.27;96422.66;1668916;86;20995;-80
2022/01/28 09:42:56;;;;;;;11.40;6.00;;;;;;;1.68;85.20;96426.75;1669015;86;20972;-81
2022/01/28 09:45:24;;;;;;;12.78;6.97;;;;;;;1.62;85.21;96427.23;1668977;86;21426;-80
2022/01/28 09:47:53;;;;;;;9.58;5.72;;;;;;;1.62;85.30;96430.27;1669011;85;21023;-81
2022/01/28 09:50:21;;;;;;;13.15;5.47;;;;;;;1.60;85.28;96429.11;1648001;86;21039;-80
2022/01/28 09:52:49;;;;;;;10.70;5.15;;;;;;;1.59;85.30;96442.05;1668833;86;21595;-80
2022/01/28 09:55:16;;;;;;;11.38;5.97;;;;;;;1.58;85.32;96437.86;1669004;86;21083;-80
2022/01/28 09:57:42;;;;;;;11.57;7.28;;;;;;;1.56;85.51;96440.55;1669140;86;21043;-81
2022/01/28 10:00:10;;;;;;;13.03;8.28;;;;;;;1.53;85.78;96440.80;1669085;86;21079;-80
2022/01/28 10:02:50;;;;;;;15.23;9.38;;;;;;;1.52;85.90;96440.47;1668905;86;21059;-81
2022/01/28 10:05:25;;;;;;;16.62;9.43;;;;;;;1.51;86.00;96441.41;1669044;86;20998;-80
2022/01/28 10:08:10;;;;;;;16.05;8.73;;;;;;;1.50;86.21;96442.34;1668733;86;21437;-80
2022/01/28 10:10:54;;;;;;;15.48;9.33;;;;;;;1.53;86.38;96448.48;1668904;86;20992;-80
2022/01/28 10:13:37;;;;;;;11.55;7.25;;;;;;;1.54;86.56;96455.23;1668945;85;21019;-80
2022/01/28 10:16:05;;;;;;;11.68;6.67;;;;;;;1.54;86.58;96452.67;1668711;86;21036;-80
2022/01/28 10:18:42;;;;;;;11.35;5.95;;;;;;;1.52;86.61;96456.30;1669228;86;21063;-82
2022/01/28 10:21:25;;;;;;;14.23;7.62;;;;;;;1.49;86.69;96459.92;1669008;86;21067;-80
2022/01/28 10:24:25;;;;;;;9.65;6.22;;;;;;;1.44;86.76;96462.83;1669038;86;21070;-80
2022/01/28 10:27:05;;;;;;;8.78;6.80;;;;;;;1.41;86.99;96469.48;1668858;86;21079;-80
2022/01/28 10:29:32;;;;;;;11.33;5.92;;;;;;;1.41;87.29;96463.55;1668104;86;20988;-80
2022/01/28 10:32:12;;;;;;;8.33;5.00;;;;;;;1.37;87.27;96467.30;1669421;86;20960;-81
2022/01/28 10:34:45;;;;;;;10.93;6.17;;;;;;;1.33;87.44;96462.09;1668995;86;20968;-80
2022/01/28 10:37:24;;;;;;;11.48;7.10;;;;;;;1.31;87.54;96467.80;1673744;83;21405;-80
2022/01/28 10:40:03;;;;;;;12.43;7.58;;;;;;;1.30;87.64;96469.98;1668872;86;20991;-80
2022/01/28 10:42:38;;;;;;;9.43;6.62;;;;;;;1.30;87.89;96478.52;1666836;86;21042;-80
2022/01/28 10:45:12;;;;;;;12.95;6.83;;;;;;;1.28;87.76;96477.80;1668794;86;21180;-80
2022/01/28 10:47:49;;;;;;;10.68;7.40;;;;;;;1.30;87.91;96477.67;1668933;86;21394;-81
2022/01/28 10:50:22;;;;;;;9.18;5.78;;;;;;;1.30;87.99;96475.11;1669098;86;21409;-80
2022/01/28 10:53:03;;;;;;;9.55;6.60;;;;;;;1.29;88.29;96476.86;1669082;86;21436;-80
2022/01/28 10:55:42;;;;;;;11.85;8.15;;;;;;;1.22;88.17;96478.30;1667403;86;20964;-80
2022/01/28 10:58:12;;;;;;;9.35;6.75;;;;;;;1.19;88.35;96484.94;1667715;86;21072;-80
2022/01/28 11:00:40;;;;;;;10.90;6.30;;;;;;;1.17;88.65;96486.81;1669057;86;21398;-81
2022/01/28 11:03:09;;;;;;;10.65;7.25;;;;;;;1.18;88.68;96495.64;1669205;86;21039;-80
2022/01/28 11:05:35;;;;;;;9.95;6.83;;;;;;;1.20;88.64;96491.22;1669272;86;21058;-80
2022/01/28 11:08:03;;;;;;;8.60;6.37;;;;;;;1.22;88.73;96496.67;1669099;86;21102;-81
2022/01/28 11:10:29;;;;;;;10.03;6.80;;;;;;;1.29;88.69;96496.52;1669170;85;21032;-80
2022/01/28 11:12:57;;;;;;;9.25;6.50;;;;;;;1.33;88.69;96487.22;1659393;85;21433;-80
2022/01/28 11:15:23;;;;;;;10.20;7.42;;;;;;;1.32;88.74;96498.87;1660027;86;21028;-80
2022/01/28 11:17:50;;;;;;;9.70;6.83;;;;;;;1.32;88.69;96500.15;1661580;86;20968;-80
2022/01/28 11:20:21;;;;;;;10.18;6.95;;;;;;;1.38;88.71;96497.09;1661285;86;20992;-80
2022/01/28 11:23:15;;;;;;;11.60;7.87;;;;;;;1.37;88.47;96506.52;1661280;86;21351;-80
2022/01/28 11:26:28;;;;;;;9.10;6.35;;;;;;;1.36;88.57;96511.77;1661464;86;20976;-81
2022/01/28 11:28:56;;;;;;;10.78;8.65;;;;;;;1.34;88.82;96511.89;1661237;86;21437;-81
2022/01/28 11:31:46;;;;;;;12.13;7.33;;;;;;;1.28;88.91;96507.70;1661528;86;21000;-81
2022/01/28 11:34:24;;;;;;;13.30;9.13;;;;;;;1.28;89.02;96514.91;1661415;86;21012;-80
2022/01/28 11:36:54;;;;;;;11.95;5.78;;;;;;;1.29;89.11;96519.56;1672136;83;21000;-80
2022/01/28 11:39:29;;;;;;;11.22;6.67;;;;;;;1.28;89.23;96516.66;1672903;85;20949;-80
2022/01/28 11:42:10;;;;;;;14.60;8.18;;;;;;;1.28;89.17;96519.22;1688783;85;21098;-80
2022/01/28 11:44:52;;;;;;;12.03;7.30;;;;;;;1.30;89.25;96508.39;1684093;85;20977;-80
2022/01/28 11:47:28;;;;;;;16.67;8.33;;;;;;;1.32;89.19;96519.34;1670006;85;21004;-81
2022/01/28 11:50:14;;;;;;;36.53;15.80;;;;;;;1.29;89.20;96526.78;1689175;85;20980;-80
2022/01/28 11:52:54;;;;;;;12.88;6.67;;;;;;;1.30;89.48;96522.03;1689079;85;21016;-80
2022/01/28 11:55:28;;;;;;;24.50;12.58;;;;;;;1.28;89.45;96521.78;1689179;85;21059;-80
2022/01/28 11:58:06;;;;;;;48.52;21.75;;;;;;;1.29;89.70;96518.28;1668997;85;20991;-80
2022/01/28 12:00:44;;;;;;;13.20;6.33;;;;;;;1.29;89.74;96524.22;1689076;85;21007;-80
2022/01/28 12:03:28;;;;;;;13.43;8.65;;;;;;;1.31;89.66;96524.13;1686452;85;21321;-80
2022/01/28 12:05:56;;;;;;;10.30;5.72;;;;;;;1.35;89.56;96525.50;1689176;85;20983;-80
2022/01/28 12:08:29;;;;;;;31.48;15.72;;;;;;;1.38;89.76;96530.38;1689103;85;21474;-80
2022/01/28 12:10:54;;;;;;;;;;;;;;;1.38;89.81;96530.38;1672536;85;21020;-80
2022/01/28 12:13:31;;;;;;;10.78;6.05;;;;;;;1.38;89.76;96526.53;1696170;84;20119;-81
2022/01/28 12:16:10;;;;;;;12.40;7.22;;;;;;;1.37;89.68;96523.16;1697105;84;20984;-81
2022/01/28 12:18:55;;;;;;;17.37;7.95;;;;;;;1.35;89.93;96535.27;1695196;82;21068;-81
2022/01/28 12:21:31;;;;;;;10.72;5.97;;;;;;;1.34;89.91;96529.81;1696718;84;21012;-80
2022/01/28 12:24:24;;;;;;;9.75;6.80;;;;;;;1.35;90.10;96537.02;1696931;84;21151;-80
2022/01/28 12:26:59;;;;;;;9.43;5.72;;;;;;;1.33;89.92;96534.58;1697306;84;21383;-81
2022/01/28 12:29:34;;;;;;;15.25;8.33;;;;;;;1.32;90.14;96532.95;1696968;84;21063;-80
2022/01/28 12:32:00;;;;;;;12.58;6.30;;;;;;;1.34;90.09;96540.52;1697282;84;21059;-80
2022/01/28 12:34:26;;;;;;;12.13;6.58;;;;;;;1.37;90.16;96536.43;1697008;84;21031;-80
2022/01/28 12:36:52;;;;;;;11.75;6.05;;;;;;;1.38;90.06;96538.86;1697020;83;20984;-81
2022/01/28 12:39:32;;;;;;;11.40;5.70;;;;;;;1.41;90.08;96542.92;1696898;83;20983;-81
2022/01/28 12:42:03;;;;;;;10.65;5.85;;;;;;;1.43;90.34;96542.33;1695199;84;20983;-80
2022/01/28 12:44:23;;;;;;;12.15;6.45;;;;;;;1.40;90.04;96551.55;1696057;82;21047;-81
2022/01/28 12:47:00;;;;;;;12.47;7.28;;;;;;;1.37;90.01;96547.48;1697210;83;20992;-80
2022/01/28 12:49:28;;;;;;;12.43;7.10;;;;;;;1.35;90.17;96548.54;1697067;84;20964;-80
2022/01/28 12:51:56;;;;;;;16.35;7.28;;;;;;;1.33;90.16;96556.34;1697009;84;21036;-81
2022/01/28 12:54:39;;;;;;;13.75;6.62;;;;;;;1.31;90.35;96554.38;1696711;83;21103;-80
2022/01/28 12:57:07;;;;;;;12.45;6.78;;;;;;;1.29;90.34;96561.33;1697392;84;21012;-80
2022/01/28 12:59:33;;;;;;;12.43;6.80;;;;;;;1.29;90.43;96575.88;1675873;84;21374;-81
2022/01/28 13:01:59;;;;;;;13.62;8.10;;;;;;;1.27;90.41;96592.64;1696913;84;20956;-80
2022/01/28 13:04:37;;;;;;;18.27;10.18;;;;;;;1.24;90.44;96585.20;1697048;84;21489;-81
2022/01/28 13:09:24;;;;;;;11.83;6.42;;;;;;;1.19;90.70;96587.32;1697097;84;21362;-80
2022/01/28 13:11:56;;;;;;;8.67;5.43;;;;;;;1.16;90.80;96584.53;1718518;83;21038;-80
2022/01/28 13:14:33;;;;;;;13.78;8.45;;;;;;;1.13;91.06;96586.03;1697006;84;21181;-81
2022/01/28 13:17:01;;;;;;;12.40;7.92;;;;;;;1.11;91.15;96584.05;1683785;85;21359;-80
2022/01/28 13:19:27;;;;;;;21.50;11.08;;;;;;;1.09;91.52;96598.72;1684257;85;21052;-80